sensor_id;sensor_type;location;lat;lon;timestamp;P1;durP1;ratioP1;P2;durP2;ratioP2
60908;SDS011;46780;48.128;-1.704;2023-10-08T00:00:36;10.75;;;5.55;;
60908;SDS011;46780;48.128;-1.704;2023-10-08T00:03:03;11.35;;;5.57;;
60908;SDS011;46780;48.128;-1.704;2023-10-08T00:05:35;11.88;;;5.57;;
60908;SDS011;46780;48.128;-1.704;2023-10-08T00:08:02;10.20;;;5.55;;
60908;SDS011;46780;48.128;-1.704;2023-10-08T00:10:29;11.40;;;5.43;;
60908;SDS011;46780;48.128;-1.704;2023-10-08T00:15:27;11.50;;;5.45;;
60908;SDS011;46780;48.128;-1.704;2023-10-08T00:17:53;10.88;;;5.38;;
60908;SDS011;46780;48.128;-1.704;2023-10-08T00:20:20;11.25;;;5.63;;
60908;SDS011;46780;48.128;-1.704;2023-10-08T00:22:46;10.80;;;5.60;;
60908;SDS011;46780;48.128;-1.704;2023-10-08T00:25:13;12.75;;;5.10;;
60908;SDS011;46780;48.128;-1.704;2023-10-08T00:27:40;12.20;;;5.25;;
60908;SDS011;46780;48.128;-1.704;2023-10-08T00:30:08;11.38;;;5.50;;
60908;SDS011;46780;48.128;-1.704;2023-10-08T00:32:36;10.07;;;5.47;;
60908;SDS011;46780;48.128;-1.704;2023-10-08T00:35:02;11.13;;;4.95;;
60908;SDS011;46780;48.128;-1.704;2023-10-08T00:37:29;10.52;;;5.38;;
60908;SDS011;46780;48.128;-1.704;2023-10-08T00:39:56;9.68;;;5.25;;
60908;SDS011;46780;48.128;-1.704;2023-10-08T00:42:22;9.88;;;5.00;;
60908;SDS011;46780;48.128;-1.704;2023-10-08T00:44:49;9.55;;;4.53;;
60908;SDS011;46780;48.128;-1.704;2023-10-08T00:47:17;9.90;;;5.28;;
60908;SDS011;46780;48.128;-1.704;2023-10-08T00:49:44;11.32;;;5.00;;
60908;SDS011;46780;48.128;-1.704;2023-10-08T00:52:12;11.50;;;5.32;;
60908;SDS011;46780;48.128;-1.704;2023-10-08T00:54:39;10.25;;;5.05;;
60908;SDS011;46780;48.128;-1.704;2023-10-08T00:57:07;11.00;;;5.18;;
60908;SDS011;46780;48.128;-1.704;2023-10-08T00:59:35;10.85;;;4.93;;
60908;SDS011;46780;48.128;-1.704;2023-10-08T01:02:02;11.65;;;5.30;;
60908;SDS011;46780;48.128;-1.704;2023-10-08T01:04:31;12.27;;;5.55;;
60908;SDS011;46780;48.128;-1.704;2023-10-08T01:06:58;12.48;;;5.63;;
60908;SDS011;46780;48.128;-1.704;2023-10-08T01:09:25;13.05;;;5.70;;
60908;SDS011;46780;48.128;-1.704;2023-10-08T01:12:06;12.63;;;5.50;;
60908;SDS011;46780;48.128;-1.704;2023-10-08T01:16:59;11.02;;;5.50;;
60908;SDS011;46780;48.128;-1.704;2023-10-08T01:19:26;9.75;;;4.95;;
60908;SDS011;46780;48.128;-1.704;2023-10-08T01:21:54;9.95;;;4.80;;
60908;SDS011;46780;48.128;-1.704;2023-10-08T01:24:22;12.82;;;5.15;;
60908;SDS011;46780;48.128;-1.704;2023-10-08T01:26:48;9.55;;;4.95;;
60908;SDS011;46780;48.128;-1.704;2023-10-08T01:29:15;12.40;;;5.50;;
60908;SDS011;46780;48.128;-1.704;2023-10-08T01:31:41;13.85;;;5.55;;
60908;SDS011;46780;48.128;-1.704;2023-10-08T01:34:08;13.00;;;5.45;;
60908;SDS011;46780;48.128;-1.704;2023-10-08T01:36:34;12.02;;;5.90;;
60908;SDS011;46780;48.128;-1.704;2023-10-08T01:39:01;10.93;;;5.82;;
60908;SDS011;46780;48.128;-1.704;2023-10-08T01:41:29;12.07;;;5.70;;
60908;SDS011;46780;48.128;-1.704;2023-10-08T01:43:55;13.25;;;6.07;;
60908;SDS011;46780;48.128;-1.704;2023-10-08T01:46:22;13.95;;;5.88;;
60908;SDS011;46780;48.128;-1.704;2023-10-08T01:48:50;13.60;;;6.15;;
60908;SDS011;46780;48.128;-1.704;2023-10-08T01:51:17;11.27;;;5.97;;
60908;SDS011;46780;48.128;-1.704;2023-10-08T01:53:44;16.30;;;6.43;;
60908;SDS011;46780;48.128;-1.704;2023-10-08T01:56:10;14.15;;;5.97;;
60908;SDS011;46780;48.128;-1.704;2023-10-08T01:58:38;12.70;;;6.10;;
60908;SDS011;46780;48.128;-1.704;2023-10-08T02:01:05;12.55;;;6.20;;
60908;SDS011;46780;48.128;-1.704;2023-10-08T02:03:31;14.13;;;6.15;;
60908;SDS011;46780;48.128;-1.704;2023-10-08T02:05:58;11.15;;;6.43;;
60908;SDS011;46780;48.128;-1.704;2023-10-08T02:08:24;12.10;;;6.05;;
60908;SDS011;46780;48.128;-1.704;2023-10-08T02:10:51;12.23;;;6.53;;
60908;SDS011;46780;48.128;-1.704;2023-10-08T02:13:18;14.07;;;6.18;;
60908;SDS011;46780;48.128;-1.704;2023-10-08T02:15:50;13.45;;;6.35;;
60908;SDS011;46780;48.128;-1.704;2023-10-08T02:18:17;15.05;;;6.90;;
60908;SDS011;46780;48.128;-1.704;2023-10-08T02:20:43;12.18;;;5.80;;
60908;SDS011;46780;48.128;-1.704;2023-10-08T02:23:10;11.55;;;6.00;;
60908;SDS011;46780;48.128;-1.704;2023-10-08T02:25:37;12.38;;;5.85;;
60908;SDS011;46780;48.128;-1.704;2023-10-08T02:28:04;14.38;;;5.95;;
60908;SDS011;46780;48.128;-1.704;2023-10-08T02:30:31;14.10;;;6.38;;
60908;SDS011;46780;48.128;-1.704;2023-10-08T02:32:59;13.20;;;5.90;;
60908;SDS011;46780;48.128;-1.704;2023-10-08T02:35:26;13.50;;;6.25;;
60908;SDS011;46780;48.128;-1.704;2023-10-08T02:37:53;14.00;;;6.07;;
60908;SDS011;46780;48.128;-1.704;2023-10-08T02:40:20;14.88;;;6.35;;
60908;SDS011;46780;48.128;-1.704;2023-10-08T02:42:47;13.15;;;6.55;;
60908;SDS011;46780;48.128;-1.704;2023-10-08T02:45:14;13.13;;;6.20;;
60908;SDS011;46780;48.128;-1.704;2023-10-08T02:47:41;14.15;;;6.47;;
60908;SDS011;46780;48.128;-1.704;2023-10-08T02:50:09;15.80;;;6.75;;
60908;SDS011;46780;48.128;-1.704;2023-10-08T02:52:36;13.88;;;7.20;;
60908;SDS011;46780;48.128;-1.704;2023-10-08T02:55:03;13.68;;;6.00;;
60908;SDS011;46780;48.128;-1.704;2023-10-08T02:57:30;11.40;;;6.50;;
60908;SDS011;46780;48.128;-1.704;2023-10-08T02:59:57;13.05;;;6.20;;
60908;SDS011;46780;48.128;-1.704;2023-10-08T03:02:23;16.50;;;6.60;;
60908;SDS011;46780;48.128;-1.704;2023-10-08T03:04:54;12.88;;;6.68;;
60908;SDS011;46780;48.128;-1.704;2023-10-08T03:07:25;13.65;;;6.65;;
60908;SDS011;46780;48.128;-1.704;2023-10-08T03:09:54;17.58;;;6.45;;
60908;SDS011;46780;48.128;-1.704;2023-10-08T03:12:22;13.00;;;6.68;;
60908;SDS011;46780;48.128;-1.704;2023-10-08T03:14:51;12.85;;;6.60;;
60908;SDS011;46780;48.128;-1.704;2023-10-08T03:17:20;13.85;;;6.45;;
60908;SDS011;46780;48.128;-1.704;2023-10-08T03:19:50;12.40;;;6.50;;
60908;SDS011;46780;48.128;-1.704;2023-10-08T03:22:20;14.00;;;6.47;;
60908;SDS011;46780;48.128;-1.704;2023-10-08T03:24:50;11.73;;;6.28;;
60908;SDS011;46780;48.128;-1.704;2023-10-08T03:27:17;14.63;;;6.95;;
60908;SDS011;46780;48.128;-1.704;2023-10-08T03:29:44;13.50;;;6.25;;
60908;SDS011;46780;48.128;-1.704;2023-10-08T03:32:12;13.98;;;6.70;;
60908;SDS011;46780;48.128;-1.704;2023-10-08T03:34:43;11.60;;;5.82;;
60908;SDS011;46780;48.128;-1.704;2023-10-08T03:39:39;12.70;;;6.20;;
60908;SDS011;46780;48.128;-1.704;2023-10-08T03:42:08;11.55;;;5.32;;
60908;SDS011;46780;48.128;-1.704;2023-10-08T03:44:35;11.85;;;5.40;;
60908;SDS011;46780;48.128;-1.704;2023-10-08T03:47:02;12.90;;;6.28;;
60908;SDS011;46780;48.128;-1.704;2023-10-08T03:49:29;12.10;;;5.60;;
60908;SDS011;46780;48.128;-1.704;2023-10-08T03:51:56;12.60;;;6.20;;
60908;SDS011;46780;48.128;-1.704;2023-10-08T03:54:23;11.50;;;5.60;;
60908;SDS011;46780;48.128;-1.704;2023-10-08T03:56:49;10.48;;;5.53;;
60908;SDS011;46780;48.128;-1.704;2023-10-08T03:59:18;13.43;;;5.60;;
60908;SDS011;46780;48.128;-1.704;2023-10-08T04:01:45;11.57;;;5.40;;
60908;SDS011;46780;48.128;-1.704;2023-10-08T04:04:11;10.38;;;5.60;;
60908;SDS011;46780;48.128;-1.704;2023-10-08T04:06:39;13.50;;;6.43;;
60908;SDS011;46780;48.128;-1.704;2023-10-08T04:09:06;15.70;;;7.03;;
60908;SDS011;46780;48.128;-1.704;2023-10-08T04:11:33;14.77;;;6.05;;
60908;SDS011;46780;48.128;-1.704;2023-10-08T04:14:00;12.02;;;6.15;;
60908;SDS011;46780;48.128;-1.704;2023-10-08T04:16:28;14.07;;;6.30;;
60908;SDS011;46780;48.128;-1.704;2023-10-08T04:18:55;13.65;;;6.40;;
60908;SDS011;46780;48.128;-1.704;2023-10-08T04:21:22;12.60;;;6.18;;
60908;SDS011;46780;48.128;-1.704;2023-10-08T04:23:49;10.95;;;5.72;;
60908;SDS011;46780;48.128;-1.704;2023-10-08T04:26:16;12.52;;;5.95;;
60908;SDS011;46780;48.128;-1.704;2023-10-08T04:28:45;11.98;;;5.70;;
60908;SDS011;46780;48.128;-1.704;2023-10-08T04:31:12;11.73;;;5.88;;
60908;SDS011;46780;48.128;-1.704;2023-10-08T04:33:40;10.52;;;5.53;;
60908;SDS011;46780;48.128;-1.704;2023-10-08T04:36:08;13.63;;;5.90;;
60908;SDS011;46780;48.128;-1.704;2023-10-08T04:38:34;12.88;;;5.88;;
60908;SDS011;46780;48.128;-1.704;2023-10-08T04:41:01;11.88;;;5.97;;
60908;SDS011;46780;48.128;-1.704;2023-10-08T04:43:28;10.75;;;5.32;;
60908;SDS011;46780;48.128;-1.704;2023-10-08T04:45:55;9.90;;;5.10;;
60908;SDS011;46780;48.128;-1.704;2023-10-08T04:48:22;10.27;;;5.22;;
60908;SDS011;46780;48.128;-1.704;2023-10-08T04:50:50;12.13;;;5.03;;
60908;SDS011;46780;48.128;-1.704;2023-10-08T04:53:17;13.70;;;5.70;;
60908;SDS011;46780;48.128;-1.704;2023-10-08T04:55:44;14.18;;;5.78;;
60908;SDS011;46780;48.128;-1.704;2023-10-08T04:58:10;10.70;;;5.00;;
60908;SDS011;46780;48.128;-1.704;2023-10-08T05:00:37;10.55;;;4.93;;
60908;SDS011;46780;48.128;-1.704;2023-10-08T05:03:03;10.07;;;5.20;;
60908;SDS011;46780;48.128;-1.704;2023-10-08T05:05:30;10.20;;;5.20;;
60908;SDS011;46780;48.128;-1.704;2023-10-08T05:07:58;11.95;;;5.40;;
60908;SDS011;46780;48.128;-1.704;2023-10-08T05:10:24;11.23;;;5.10;;
60908;SDS011;46780;48.128;-1.704;2023-10-08T05:12:51;11.07;;;5.50;;
60908;SDS011;46780;48.128;-1.704;2023-10-08T05:15:19;10.95;;;5.40;;
60908;SDS011;46780;48.128;-1.704;2023-10-08T05:17:46;12.20;;;5.60;;
60908;SDS011;46780;48.128;-1.704;2023-10-08T05:20:13;13.15;;;6.10;;
60908;SDS011;46780;48.128;-1.704;2023-10-08T05:22:40;12.35;;;6.20;;
60908;SDS011;46780;48.128;-1.704;2023-10-08T05:25:08;11.60;;;5.20;;
60908;SDS011;46780;48.128;-1.704;2023-10-08T05:27:35;10.68;;;5.53;;
60908;SDS011;46780;48.128;-1.704;2023-10-08T05:30:03;12.40;;;5.47;;
60908;SDS011;46780;48.128;-1.704;2023-10-08T05:32:30;11.38;;;5.60;;
60908;SDS011;46780;48.128;-1.704;2023-10-08T05:34:56;12.55;;;5.93;;
60908;SDS011;46780;48.128;-1.704;2023-10-08T05:37:23;12.75;;;6.07;;
60908;SDS011;46780;48.128;-1.704;2023-10-08T05:39:49;12.40;;;6.18;;
60908;SDS011;46780;48.128;-1.704;2023-10-08T05:42:17;12.20;;;5.70;;
60908;SDS011;46780;48.128;-1.704;2023-10-08T05:44:44;12.25;;;5.95;;
60908;SDS011;46780;48.128;-1.704;2023-10-08T05:47:13;12.57;;;5.93;;
60908;SDS011;46780;48.128;-1.704;2023-10-08T05:49:39;11.02;;;5.28;;
60908;SDS011;46780;48.128;-1.704;2023-10-08T05:52:06;10.05;;;5.13;;
60908;SDS011;46780;48.128;-1.704;2023-10-08T05:54:33;12.10;;;5.25;;
60908;SDS011;46780;48.128;-1.704;2023-10-08T05:56:59;13.30;;;6.55;;
60908;SDS011;46780;48.128;-1.704;2023-10-08T05:59:29;11.70;;;6.25;;
60908;SDS011;46780;48.128;-1.704;2023-10-08T06:01:55;13.38;;;5.97;;
60908;SDS011;46780;48.128;-1.704;2023-10-08T06:04:22;12.45;;;6.15;;
60908;SDS011;46780;48.128;-1.704;2023-10-08T06:06:48;13.75;;;6.20;;
60908;SDS011;46780;48.128;-1.704;2023-10-08T06:09:15;10.13;;;5.55;;
60908;SDS011;46780;48.128;-1.704;2023-10-08T06:11:41;11.55;;;5.55;;
60908;SDS011;46780;48.128;-1.704;2023-10-08T06:14:07;11.48;;;5.40;;
60908;SDS011;46780;48.128;-1.704;2023-10-08T06:16:36;12.40;;;5.75;;
60908;SDS011;46780;48.128;-1.704;2023-10-08T06:19:02;9.82;;;5.10;;
60908;SDS011;46780;48.128;-1.704;2023-10-08T06:21:28;10.93;;;5.50;;
60908;SDS011;46780;48.128;-1.704;2023-10-08T06:23:55;13.43;;;5.82;;
60908;SDS011;46780;48.128;-1.704;2023-10-08T06:26:21;12.05;;;5.50;;
60908;SDS011;46780;48.128;-1.704;2023-10-08T06:28:48;12.90;;;5.65;;
60908;SDS011;46780;48.128;-1.704;2023-10-08T06:31:14;13.10;;;5.20;;
60908;SDS011;46780;48.128;-1.704;2023-10-08T06:33:42;11.93;;;5.10;;
60908;SDS011;46780;48.128;-1.704;2023-10-08T06:36:09;10.57;;;5.45;;
60908;SDS011;46780;48.128;-1.704;2023-10-08T06:38:36;12.02;;;5.40;;
60908;SDS011;46780;48.128;-1.704;2023-10-08T06:41:04;13.05;;;5.20;;
60908;SDS011;46780;48.128;-1.704;2023-10-08T06:43:32;10.98;;;5.00;;
60908;SDS011;46780;48.128;-1.704;2023-10-08T06:45:58;9.13;;;4.80;;
60908;SDS011;46780;48.128;-1.704;2023-10-08T06:48:25;13.30;;;5.00;;
60908;SDS011;46780;48.128;-1.704;2023-10-08T06:50:53;11.43;;;5.30;;
60908;SDS011;46780;48.128;-1.704;2023-10-08T06:53:19;12.57;;;5.30;;
60908;SDS011;46780;48.128;-1.704;2023-10-08T06:55:46;11.27;;;5.00;;
60908;SDS011;46780;48.128;-1.704;2023-10-08T06:58:12;10.75;;;5.28;;
60908;SDS011;46780;48.128;-1.704;2023-10-08T07:00:39;10.63;;;4.93;;
60908;SDS011;46780;48.128;-1.704;2023-10-08T07:03:08;11.32;;;5.25;;
60908;SDS011;46780;48.128;-1.704;2023-10-08T07:05:34;12.48;;;5.20;;
60908;SDS011;46780;48.128;-1.704;2023-10-08T07:08:02;13.75;;;4.97;;
60908;SDS011;46780;48.128;-1.704;2023-10-08T07:10:29;9.40;;;4.60;;
60908;SDS011;46780;48.128;-1.704;2023-10-08T07:12:56;12.20;;;5.50;;
60908;SDS011;46780;48.128;-1.704;2023-10-08T07:15:22;14.27;;;7.22;;
60908;SDS011;46780;48.128;-1.704;2023-10-08T07:17:49;16.67;;;8.93;;
60908;SDS011;46780;48.128;-1.704;2023-10-08T07:20:16;16.85;;;8.88;;
60908;SDS011;46780;48.128;-1.704;2023-10-08T07:22:42;15.43;;;7.30;;
60908;SDS011;46780;48.128;-1.704;2023-10-08T07:25:10;13.20;;;5.93;;
60908;SDS011;46780;48.128;-1.704;2023-10-08T07:27:36;12.18;;;5.30;;
60908;SDS011;46780;48.128;-1.704;2023-10-08T07:30:03;11.40;;;5.60;;
60908;SDS011;46780;48.128;-1.704;2023-10-08T07:32:30;10.73;;;5.28;;
60908;SDS011;46780;48.128;-1.704;2023-10-08T07:34:57;12.77;;;5.75;;
60908;SDS011;46780;48.128;-1.704;2023-10-08T07:37:23;14.82;;;5.55;;
60908;SDS011;46780;48.128;-1.704;2023-10-08T07:39:50;16.02;;;7.70;;
60908;SDS011;46780;48.128;-1.704;2023-10-08T07:42:17;16.95;;;8.70;;
60908;SDS011;46780;48.128;-1.704;2023-10-08T07:44:44;17.40;;;8.65;;
60908;SDS011;46780;48.128;-1.704;2023-10-08T07:47:10;14.82;;;6.63;;
60908;SDS011;46780;48.128;-1.704;2023-10-08T07:49:37;13.98;;;6.30;;
60908;SDS011;46780;48.128;-1.704;2023-10-08T07:52:03;12.70;;;6.93;;
60908;SDS011;46780;48.128;-1.704;2023-10-08T07:54:30;12.13;;;6.45;;
60908;SDS011;46780;48.128;-1.704;2023-10-08T07:56:56;12.85;;;5.28;;
60908;SDS011;46780;48.128;-1.704;2023-10-08T07:59:24;10.77;;;5.30;;
60908;SDS011;46780;48.128;-1.704;2023-10-08T08:01:51;10.07;;;5.00;;
60908;SDS011;46780;48.128;-1.704;2023-10-08T08:04:17;11.95;;;5.00;;
60908;SDS011;46780;48.128;-1.704;2023-10-08T08:06:44;10.65;;;4.95;;
60908;SDS011;46780;48.128;-1.704;2023-10-08T08:09:10;12.05;;;4.90;;
60908;SDS011;46780;48.128;-1.704;2023-10-08T08:11:37;11.30;;;5.13;;
60908;SDS011;46780;48.128;-1.704;2023-10-08T08:14:03;10.43;;;4.70;;
60908;SDS011;46780;48.128;-1.704;2023-10-08T08:16:31;11.35;;;5.70;;
60908;SDS011;46780;48.128;-1.704;2023-10-08T08:18:58;19.25;;;10.23;;
60908;SDS011;46780;48.128;-1.704;2023-10-08T08:21:24;24.05;;;13.45;;
60908;SDS011;46780;48.128;-1.704;2023-10-08T08:23:51;19.30;;;10.48;;
60908;SDS011;46780;48.128;-1.704;2023-10-08T08:26:19;14.20;;;6.85;;
60908;SDS011;46780;48.128;-1.704;2023-10-08T08:28:46;13.73;;;5.05;;
60908;SDS011;46780;48.128;-1.704;2023-10-08T08:31:13;12.43;;;5.20;;
60908;SDS011;46780;48.128;-1.704;2023-10-08T08:33:43;12.48;;;5.30;;
60908;SDS011;46780;48.128;-1.704;2023-10-08T08:36:10;11.02;;;5.03;;
60908;SDS011;46780;48.128;-1.704;2023-10-08T08:38:36;10.32;;;4.70;;
60908;SDS011;46780;48.128;-1.704;2023-10-08T08:41:03;14.20;;;4.78;;
60908;SDS011;46780;48.128;-1.704;2023-10-08T08:43:29;11.82;;;4.18;;
60908;SDS011;46780;48.128;-1.704;2023-10-08T08:45:57;9.93;;;4.32;;
60908;SDS011;46780;48.128;-1.704;2023-10-08T08:48:23;11.77;;;4.75;;
60908;SDS011;46780;48.128;-1.704;2023-10-08T08:50:52;9.32;;;3.85;;
60908;SDS011;46780;48.128;-1.704;2023-10-08T08:53:19;9.45;;;4.05;;
60908;SDS011;46780;48.128;-1.704;2023-10-08T08:55:45;9.40;;;4.32;;
60908;SDS011;46780;48.128;-1.704;2023-10-08T08:58:12;11.80;;;4.57;;
60908;SDS011;46780;48.128;-1.704;2023-10-08T09:00:38;10.48;;;4.13;;
60908;SDS011;46780;48.128;-1.704;2023-10-08T09:03:07;10.65;;;4.05;;
60908;SDS011;46780;48.128;-1.704;2023-10-08T09:05:33;8.55;;;3.90;;
60908;SDS011;46780;48.128;-1.704;2023-10-08T09:08:02;10.93;;;4.03;;
60908;SDS011;46780;48.128;-1.704;2023-10-08T09:10:31;13.15;;;4.30;;
60908;SDS011;46780;48.128;-1.704;2023-10-08T09:12:59;8.65;;;3.78;;
60908;SDS011;46780;48.128;-1.704;2023-10-08T09:15:25;11.35;;;3.85;;
60908;SDS011;46780;48.128;-1.704;2023-10-08T09:17:52;12.65;;;4.05;;
60908;SDS011;46780;48.128;-1.704;2023-10-08T09:20:19;12.23;;;4.20;;
60908;SDS011;46780;48.128;-1.704;2023-10-08T09:22:45;10.93;;;4.18;;
60908;SDS011;46780;48.128;-1.704;2023-10-08T09:25:13;8.15;;;3.75;;
60908;SDS011;46780;48.128;-1.704;2023-10-08T09:27:46;9.40;;;3.75;;
60908;SDS011;46780;48.128;-1.704;2023-10-08T09:30:20;8.13;;;3.80;;
60908;SDS011;46780;48.128;-1.704;2023-10-08T09:32:47;9.00;;;3.60;;
60908;SDS011;46780;48.128;-1.704;2023-10-08T09:35:14;9.75;;;3.90;;
60908;SDS011;46780;48.128;-1.704;2023-10-08T09:37:42;9.40;;;3.88;;
60908;SDS011;46780;48.128;-1.704;2023-10-08T09:40:10;8.93;;;4.07;;
60908;SDS011;46780;48.128;-1.704;2023-10-08T09:42:39;8.15;;;3.67;;
60908;SDS011;46780;48.128;-1.704;2023-10-08T09:45:07;8.60;;;3.40;;
60908;SDS011;46780;48.128;-1.704;2023-10-08T09:47:35;10.82;;;4.07;;
60908;SDS011;46780;48.128;-1.704;2023-10-08T09:52:32;7.82;;;3.42;;
60908;SDS011;46780;48.128;-1.704;2023-10-08T09:55:06;9.00;;;3.45;;
60908;SDS011;46780;48.128;-1.704;2023-10-08T09:57:35;10.40;;;3.72;;
60908;SDS011;46780;48.128;-1.704;2023-10-08T10:00:03;10.05;;;4.07;;
60908;SDS011;46780;48.128;-1.704;2023-10-08T10:02:31;8.88;;;3.83;;
60908;SDS011;46780;48.128;-1.704;2023-10-08T10:04:58;12.20;;;3.47;;
60908;SDS011;46780;48.128;-1.704;2023-10-08T10:07:25;9.88;;;3.70;;
60908;SDS011;46780;48.128;-1.704;2023-10-08T10:09:52;9.13;;;3.58;;
60908;SDS011;46780;48.128;-1.704;2023-10-08T10:12:20;8.77;;;3.67;;
60908;SDS011;46780;48.128;-1.704;2023-10-08T10:14:51;8.70;;;3.70;;
60908;SDS011;46780;48.128;-1.704;2023-10-08T10:17:21;8.77;;;3.65;;
60908;SDS011;46780;48.128;-1.704;2023-10-08T10:19:50;7.57;;;3.58;;
60908;SDS011;46780;48.128;-1.704;2023-10-08T10:22:29;8.20;;;3.50;;
60908;SDS011;46780;48.128;-1.704;2023-10-08T10:24:57;9.00;;;3.40;;
60908;SDS011;46780;48.128;-1.704;2023-10-08T10:27:23;8.18;;;3.33;;
60908;SDS011;46780;48.128;-1.704;2023-10-08T10:29:50;9.25;;;3.58;;
60908;SDS011;46780;48.128;-1.704;2023-10-08T10:32:16;8.93;;;3.53;;
60908;SDS011;46780;48.128;-1.704;2023-10-08T10:34:45;9.48;;;3.67;;
60908;SDS011;46780;48.128;-1.704;2023-10-08T10:37:11;9.98;;;3.70;;
60908;SDS011;46780;48.128;-1.704;2023-10-08T10:39:37;12.00;;;4.05;;
60908;SDS011;46780;48.128;-1.704;2023-10-08T10:42:04;9.75;;;3.60;;
60908;SDS011;46780;48.128;-1.704;2023-10-08T10:44:31;10.80;;;3.70;;
60908;SDS011;46780;48.128;-1.704;2023-10-08T10:46:59;8.85;;;3.40;;
60908;SDS011;46780;48.128;-1.704;2023-10-08T10:49:26;9.57;;;3.65;;
60908;SDS011;46780;48.128;-1.704;2023-10-08T10:51:54;8.38;;;3.70;;
60908;SDS011;46780;48.128;-1.704;2023-10-08T10:54:20;8.43;;;3.55;;
60908;SDS011;46780;48.128;-1.704;2023-10-08T10:56:47;7.70;;;3.20;;
60908;SDS011;46780;48.128;-1.704;2023-10-08T10:59:13;8.52;;;3.47;;
60908;SDS011;46780;48.128;-1.704;2023-10-08T11:01:40;10.05;;;3.90;;
60908;SDS011;46780;48.128;-1.704;2023-10-08T11:04:06;10.52;;;3.88;;
60908;SDS011;46780;48.128;-1.704;2023-10-08T11:06:33;7.90;;;3.55;;
60908;SDS011;46780;48.128;-1.704;2023-10-08T11:09:01;9.98;;;3.60;;
60908;SDS011;46780;48.128;-1.704;2023-10-08T11:11:28;7.55;;;3.55;;
60908;SDS011;46780;48.128;-1.704;2023-10-08T11:13:55;9.20;;;3.38;;
60908;SDS011;46780;48.128;-1.704;2023-10-08T11:16:22;7.03;;;3.20;;
60908;SDS011;46780;48.128;-1.704;2023-10-08T11:18:49;9.43;;;3.60;;
60908;SDS011;46780;48.128;-1.704;2023-10-08T11:21:16;8.60;;;3.28;;
60908;SDS011;46780;48.128;-1.704;2023-10-08T11:23:43;7.82;;;3.45;;
60908;SDS011;46780;48.128;-1.704;2023-10-08T11:26:13;8.02;;;3.30;;
60908;SDS011;46780;48.128;-1.704;2023-10-08T11:28:41;8.48;;;3.40;;
60908;SDS011;46780;48.128;-1.704;2023-10-08T11:31:09;9.77;;;3.65;;
60908;SDS011;46780;48.128;-1.704;2023-10-08T11:33:37;9.15;;;3.60;;
60908;SDS011;46780;48.128;-1.704;2023-10-08T11:36:08;8.00;;;3.50;;
60908;SDS011;46780;48.128;-1.704;2023-10-08T11:38:38;7.00;;;3.47;;
60908;SDS011;46780;48.128;-1.704;2023-10-08T11:41:16;7.35;;;3.60;;
60908;SDS011;46780;48.128;-1.704;2023-10-08T11:43:43;8.70;;;3.63;;
60908;SDS011;46780;48.128;-1.704;2023-10-08T11:46:09;8.20;;;3.63;;
60908;SDS011;46780;48.128;-1.704;2023-10-08T11:48:36;7.45;;;3.20;;
60908;SDS011;46780;48.128;-1.704;2023-10-08T11:51:03;9.38;;;3.80;;
60908;SDS011;46780;48.128;-1.704;2023-10-08T11:53:29;8.80;;;3.40;;
60908;SDS011;46780;48.128;-1.704;2023-10-08T11:55:56;9.82;;;3.63;;
60908;SDS011;46780;48.128;-1.704;2023-10-08T11:58:24;8.50;;;3.40;;
60908;SDS011;46780;48.128;-1.704;2023-10-08T12:00:50;8.18;;;3.58;;
60908;SDS011;46780;48.128;-1.704;2023-10-08T12:03:17;8.82;;;3.65;;
60908;SDS011;46780;48.128;-1.704;2023-10-08T12:05:44;8.20;;;3.70;;
60908;SDS011;46780;48.128;-1.704;2023-10-08T12:08:10;8.30;;;3.45;;
60908;SDS011;46780;48.128;-1.704;2023-10-08T12:10:37;8.95;;;3.70;;
60908;SDS011;46780;48.128;-1.704;2023-10-08T12:13:04;8.60;;;3.40;;
60908;SDS011;46780;48.128;-1.704;2023-10-08T12:15:32;7.68;;;3.63;;
60908;SDS011;46780;48.128;-1.704;2023-10-08T12:17:58;8.85;;;3.70;;
60908;SDS011;46780;48.128;-1.704;2023-10-08T12:20:25;8.32;;;3.70;;
60908;SDS011;46780;48.128;-1.704;2023-10-08T12:22:51;9.57;;;3.50;;
60908;SDS011;46780;48.128;-1.704;2023-10-08T12:25:18;7.78;;;3.80;;
60908;SDS011;46780;48.128;-1.704;2023-10-08T12:27:44;8.52;;;3.80;;
60908;SDS011;46780;48.128;-1.704;2023-10-08T12:30:11;9.63;;;4.03;;
60908;SDS011;46780;48.128;-1.704;2023-10-08T12:32:39;9.73;;;3.65;;
60908;SDS011;46780;48.128;-1.704;2023-10-08T12:35:06;7.35;;;3.40;;
60908;SDS011;46780;48.128;-1.704;2023-10-08T12:37:32;8.40;;;3.65;;
60908;SDS011;46780;48.128;-1.704;2023-10-08T12:39:59;10.90;;;3.80;;
60908;SDS011;46780;48.128;-1.704;2023-10-08T12:42:26;8.63;;;3.85;;
60908;SDS011;46780;48.128;-1.704;2023-10-08T12:44:52;8.98;;;3.70;;
60908;SDS011;46780;48.128;-1.704;2023-10-08T12:47:19;7.53;;;3.42;;
60908;SDS011;46780;48.128;-1.704;2023-10-08T12:49:46;8.13;;;3.72;;
60908;SDS011;46780;48.128;-1.704;2023-10-08T12:52:13;8.30;;;3.90;;
60908;SDS011;46780;48.128;-1.704;2023-10-08T12:54:39;7.65;;;3.40;;
60908;SDS011;46780;48.128;-1.704;2023-10-08T12:57:06;7.00;;;3.40;;
60908;SDS011;46780;48.128;-1.704;2023-10-08T12:59:32;8.85;;;4.00;;
60908;SDS011;46780;48.128;-1.704;2023-10-08T13:01:59;6.80;;;3.42;;
60908;SDS011;46780;48.128;-1.704;2023-10-08T13:04:25;8.77;;;3.72;;
60908;SDS011;46780;48.128;-1.704;2023-10-08T13:06:53;9.02;;;3.60;;
60908;SDS011;46780;48.128;-1.704;2023-10-08T13:09:20;8.25;;;3.50;;
60908;SDS011;46780;48.128;-1.704;2023-10-08T13:11:47;9.10;;;3.80;;
60908;SDS011;46780;48.128;-1.704;2023-10-08T13:14:13;8.93;;;3.70;;
60908;SDS011;46780;48.128;-1.704;2023-10-08T13:16:40;8.15;;;3.70;;
60908;SDS011;46780;48.128;-1.704;2023-10-08T13:19:06;7.47;;;3.70;;
60908;SDS011;46780;48.128;-1.704;2023-10-08T13:21:33;8.25;;;3.60;;
60908;SDS011;46780;48.128;-1.704;2023-10-08T13:24:04;9.10;;;3.30;;
60908;SDS011;46780;48.128;-1.704;2023-10-08T13:26:31;8.15;;;3.40;;
60908;SDS011;46780;48.128;-1.704;2023-10-08T13:29:00;10.38;;;3.67;;
60908;SDS011;46780;48.128;-1.704;2023-10-08T13:31:27;9.57;;;3.70;;
60908;SDS011;46780;48.128;-1.704;2023-10-08T13:33:54;10.00;;;3.70;;
60908;SDS011;46780;48.128;-1.704;2023-10-08T13:36:20;9.05;;;3.58;;
60908;SDS011;46780;48.128;-1.704;2023-10-08T13:38:49;8.48;;;3.75;;
60908;SDS011;46780;48.128;-1.704;2023-10-08T13:41:17;8.93;;;3.53;;
60908;SDS011;46780;48.128;-1.704;2023-10-08T13:43:44;8.82;;;3.30;;
60908;SDS011;46780;48.128;-1.704;2023-10-08T13:46:12;10.38;;;3.95;;
60908;SDS011;46780;48.128;-1.704;2023-10-08T13:48:40;7.78;;;3.63;;
60908;SDS011;46780;48.128;-1.704;2023-10-08T13:51:07;8.90;;;3.63;;
60908;SDS011;46780;48.128;-1.704;2023-10-08T13:53:36;8.73;;;3.47;;
60908;SDS011;46780;48.128;-1.704;2023-10-08T13:56:06;9.25;;;3.70;;
60908;SDS011;46780;48.128;-1.704;2023-10-08T13:58:34;8.85;;;3.65;;
60908;SDS011;46780;48.128;-1.704;2023-10-08T14:01:01;8.95;;;3.50;;
60908;SDS011;46780;48.128;-1.704;2023-10-08T14:03:39;10.73;;;3.58;;
60908;SDS011;46780;48.128;-1.704;2023-10-08T14:06:06;6.78;;;3.05;;
60908;SDS011;46780;48.128;-1.704;2023-10-08T14:08:32;10.50;;;3.72;;
60908;SDS011;46780;48.128;-1.704;2023-10-08T14:10:59;8.10;;;3.60;;
60908;SDS011;46780;48.128;-1.704;2023-10-08T14:13:25;8.00;;;3.60;;
60908;SDS011;46780;48.128;-1.704;2023-10-08T14:15:53;10.02;;;3.58;;
60908;SDS011;46780;48.128;-1.704;2023-10-08T14:18:21;8.65;;;3.70;;
60908;SDS011;46780;48.128;-1.704;2023-10-08T14:20:48;9.75;;;3.65;;
60908;SDS011;46780;48.128;-1.704;2023-10-08T14:23:15;9.52;;;3.88;;
60908;SDS011;46780;48.128;-1.704;2023-10-08T14:25:41;10.27;;;3.80;;
60908;SDS011;46780;48.128;-1.704;2023-10-08T14:28:09;8.63;;;3.50;;
60908;SDS011;46780;48.128;-1.704;2023-10-08T14:30:35;8.75;;;3.58;;
60908;SDS011;46780;48.128;-1.704;2023-10-08T14:33:08;8.48;;;3.42;;
60908;SDS011;46780;48.128;-1.704;2023-10-08T14:35:36;6.65;;;3.20;;